

Wyoming Mesonet
Water Resources Data System and State Climate Office
SEO WACNet, UW USACE UMRB, USDA-ARS, BLM
| Wind | Soil | |||||||||||||||||||
| Temp | Precip | Speed | Dir | Gust | Dir | Humidity | Pressure | Solar | Snow | Temperature (Deg F) | Moisture (%) | |||||||||
| Date Time (MST) | (F) | (in) | (mph) | (deg) | (mph) | (deg) | (%) | (Mbars) | (w/m^2) | (in) | 5cm | 10cm | 20cm | 50cm | 1m | 5cm | 10cm | 20cm | 50cm | 1m |
| 2026-08-30 00:00:00 | 63.77 | 0.00 | 10.11 | 222 | 11.93 | 214 | 74.6 | 869.0 | 0.0 | -0.7 | 71.96 | 73.04 | 72.50 | 68.72 | 67.28 | 1.9% | 3.8% | 7.3% | 14.5% | 14.0% |
| 2026-08-30 01:00:00 | 60.80 | 0.00 | 7.26 | 183 | 10.44 | 212 | 84.4 | 869.0 | 0.0 | -0.8 | 71.24 | 72.50 | 72.32 | 68.72 | 67.28 | 1.9% | 3.9% | 7.3% | 14.5% | 14.0% |
| 2026-08-30 02:00:00 | 61.88 | 0.00 | 11.48 | 203 | 14.29 | 222 | 79.3 | 869.0 | 0.0 | -0.7 | 70.52 | 71.96 | 71.96 | 68.72 | 67.10 | 1.9% | 3.8% | 7.2% | 14.5% | 14.0% |
| 2026-08-30 03:00:00 | 59.65 | 0.00 | 9.28 | 175 | 13.54 | 213 | 90.2 | 870.0 | 0.0 | -0.6 | 69.62 | 71.42 | 71.78 | 68.72 | 67.28 | 1.9% | 3.9% | 7.2% | 14.5% | 13.9% |
| 2026-08-30 04:00:00 | 60.37 | 0.00 | 8.30 | 170 | 11.68 | 176 | 85.4 | 870.0 | 0.0 | -0.6 | 69.08 | 70.88 | 71.42 | 68.72 | 67.28 | 1.8% | 3.9% | 7.2% | 14.5% | 14.0% |
| 2026-08-30 05:00:00 | 60.35 | 0.00 | 7.53 | 186 | 11.31 | 160 | 80.1 | 870.0 | 0.0 | -0.7 | 68.72 | 70.34 | 71.24 | 68.72 | 67.28 | 1.8% | 3.8% | 7.2% | 14.5% | 14.0% |
| 2026-08-30 06:00:00 | 61.39 | 0.00 | 8.06 | 172 | 12.55 | 192 | 75.4 | 870.0 | 77.7 | -0.6 | 68.00 | 69.98 | 70.88 | 68.72 | 67.28 | 1.8% | 3.9% | 7.2% | 14.5% | 14.0% |
| 2026-08-30 07:00:00 | 66.24 | 0.00 | 7.21 | 191 | 11.55 | 204 | 64.5 | 870.0 | 269.9 | -0.6 | 67.82 | 69.44 | 70.70 | 68.72 | 67.28 | 1.8% | 3.8% | 7.2% | 14.5% | 13.9% |
| 2026-08-30 08:00:00 | 74.16 | 0.00 | 4.81 | 171 | 13.04 | 198 | 53.2 | 870.0 | 473.4 | -0.4 | 68.36 | 69.26 | 70.52 | 68.72 | 67.28 | 1.9% | 3.8% | 7.2% | 14.5% | 14.0% |
| 2026-08-30 09:00:00 | 77.76 | 0.00 | 5.95 | 244 | 8.82 | 223 | 46.7 | 870.0 | 569.6 | -0.4 | 69.80 | 69.26 | 70.16 | 68.72 | 67.28 | 1.9% | 3.8% | 7.2% | 14.5% | 14.0% |
| 2026-08-30 10:00:00 | 80.31 | 0.00 | 4.76 | 177 | 9.69 | 212 | 40.2 | 870.0 | 750.7 | -0.4 | 71.42 | 69.80 | 69.98 | 68.72 | 67.28 | 1.9% | 3.9% | 7.2% | 14.5% | 13.9% |
| 2026-08-30 11:00:00 | 82.54 | 0.00 | 5.27 | 214 | 13.17 | 208 | 34.6 | 870.0 | 869.0 | -0.3 | 74.12 | 70.70 | 69.98 | 68.72 | 67.28 | 1.9% | 3.9% | 7.2% | 14.5% | 14.0% |
| 2026-08-30 12:00:00 | 85.28 | 0.00 | 6.50 | 192 | 16.40 | 208 | 25.5 | 870.0 | 415.2 | -0.3 | 76.46 | 71.96 | 70.16 | 68.54 | 67.28 | 2.0% | 3.9% | 7.2% | 14.5% | 13.9% |
| 2026-08-30 13:00:00 | 85.23 | 0.00 | 9.47 | 197 | 19.89 | 204 | 25.9 | 869.0 | 542.6 | -0.3 | 77.90 | 73.40 | 70.34 | 68.54 | 67.28 | 2.0% | 3.9% | 7.2% | 14.5% | 14.0% |
| 2026-08-30 14:00:00 | 66.67 | 0.00 | 28.95 | 329 | 39.26 | 318 | 60.1 | 872.0 | 130.0 | -0.7 | 78.62 | 74.30 | 70.70 | 68.54 | 67.28 | 2.0% | 4.0% | 7.2% | 14.5% | 14.0% |
| 2026-08-30 15:00:00 | 60.82 | 0.00 | 19.80 | 335 | 44.47 | 329 | 62.7 | 872.0 | 376.6 | -0.6 | 76.82 | 74.84 | 71.06 | 68.36 | 67.28 | 2.0% | 4.0% | 7.2% | 14.5% | 14.0% |
| 2026-08-30 16:00:00 | 61.92 | 0.00 | 11.67 | 312 | 31.43 | 307 | 64.0 | 873.0 | 389.1 | -0.5 | 75.02 | 74.48 | 71.60 | 68.36 | 67.28 | 1.9% | 3.9% | 7.3% | 14.4% | 13.9% |
| 2026-08-30 17:00:00 | 64.74 | 0.00 | 6.79 | 297 | 15.16 | 292 | 55.8 | 872.0 | 293.8 | -0.5 | 74.30 | 73.94 | 71.78 | 68.36 | 67.28 | 1.9% | 3.9% | 7.3% | 14.5% | 14.0% |
| 2026-08-30 18:00:00 | 62.08 | 0.00 | 9.19 | 319 | 12.92 | 320 | 56.5 | 872.0 | 103.8 | -0.7 | 73.40 | 73.58 | 71.78 | 68.36 | 67.28 | 1.9% | 3.9% | 7.3% | 14.5% | 13.9% |
| 2026-08-30 19:00:00 | 54.64 | 0.00 | 4.23 | 274 | 11.43 | 316 | 71.2 | 872.0 | 0.0 | -1.0 | 71.78 | 72.86 | 71.78 | 68.36 | 67.10 | 1.9% | 3.9% | 7.3% | 14.5% | 14.0% |
| 2026-08-30 20:00:00 | 53.76 | 0.00 | 6.21 | 228 | 9.19 | 289 | 76.4 | 873.0 | 0.0 | -0.9 | 70.16 | 71.96 | 71.78 | 68.36 | 67.28 | 1.9% | 3.8% | 7.3% | 14.5% | 13.9% |
| 2026-08-30 21:00:00 | 54.05 | 0.00 | 4.72 | 283 | 6.83 | 259 | 70.8 | 873.0 | 0.0 | -1.3 | 68.72 | 71.24 | 71.42 | 68.36 | 67.10 | 1.9% | 3.8% | 7.3% | 14.5% | 13.9% |
| 2026-08-30 22:00:00 | 54.34 | 0.00 | 6.57 | 182 | 8.20 | 192 | 74.7 | 874.0 | 0.0 | -1.0 | 67.46 | 70.52 | 71.24 | 68.54 | 67.10 | 1.9% | 3.8% | 7.2% | 14.4% | 14.0% |
| 2026-08-30 23:00:00 | 52.00 | 0.00 | 6.35 | 169 | 8.20 | 167 | 75.9 | 873.0 | 0.0 | -1.1 | 66.56 | 69.62 | 70.88 | 68.54 | 67.10 | 1.9% | 3.8% | 7.2% | 14.5% | 14.0% |